sensor_id;sensor_type;location;lat;lon;timestamp;P1;durP1;ratioP1;P2;durP2;ratioP2
6356;SDS011;3211;53.452;-2.264;2023-03-15T00:00:22;7.53;;;5.33;;
6356;SDS011;3211;53.452;-2.264;2023-03-15T00:02:49;6.83;;;5.57;;
6356;SDS011;3211;53.452;-2.264;2023-03-15T00:05:16;7.70;;;5.80;;
6356;SDS011;3211;53.452;-2.264;2023-03-15T00:07:44;7.67;;;5.30;;
6356;SDS011;3211;53.452;-2.264;2023-03-15T00:10:10;8.23;;;5.43;;
6356;SDS011;3211;53.452;-2.264;2023-03-15T00:12:38;7.30;;;5.80;;
6356;SDS011;3211;53.452;-2.264;2023-03-15T00:15:08;10.43;;;6.00;;
6356;SDS011;3211;53.452;-2.264;2023-03-15T00:17:38;8.77;;;5.80;;
6356;SDS011;3211;53.452;-2.264;2023-03-15T00:20:05;9.07;;;6.27;;
6356;SDS011;3211;53.452;-2.264;2023-03-15T00:22:33;8.90;;;6.17;;
6356;SDS011;3211;53.452;-2.264;2023-03-15T00:25:00;9.43;;;5.57;;
6356;SDS011;3211;53.452;-2.264;2023-03-15T00:27:26;9.20;;;5.87;;
6356;SDS011;3211;53.452;-2.264;2023-03-15T00:29:53;7.77;;;6.00;;
6356;SDS011;3211;53.452;-2.264;2023-03-15T00:32:22;9.77;;;6.30;;
6356;SDS011;3211;53.452;-2.264;2023-03-15T00:34:49;12.70;;;6.07;;
6356;SDS011;3211;53.452;-2.264;2023-03-15T00:37:18;8.40;;;5.93;;
6356;SDS011;3211;53.452;-2.264;2023-03-15T00:39:47;11.60;;;7.03;;
6356;SDS011;3211;53.452;-2.264;2023-03-15T00:42:14;8.83;;;6.30;;
6356;SDS011;3211;53.452;-2.264;2023-03-15T00:44:41;7.80;;;6.27;;
6356;SDS011;3211;53.452;-2.264;2023-03-15T00:47:08;8.20;;;6.17;;
6356;SDS011;3211;53.452;-2.264;2023-03-15T00:49:37;12.93;;;7.20;;
6356;SDS011;3211;53.452;-2.264;2023-03-15T00:52:05;8.83;;;5.83;;
6356;SDS011;3211;53.452;-2.264;2023-03-15T00:54:32;12.90;;;8.40;;
6356;SDS011;3211;53.452;-2.264;2023-03-15T00:57:00;8.40;;;6.77;;
6356;SDS011;3211;53.452;-2.264;2023-03-15T00:59:28;9.80;;;7.17;;
6356;SDS011;3211;53.452;-2.264;2023-03-15T01:01:58;10.40;;;6.70;;
6356;SDS011;3211;53.452;-2.264;2023-03-15T01:04:26;7.93;;;6.37;;
6356;SDS011;3211;53.452;-2.264;2023-03-15T01:06:54;8.87;;;6.03;;
6356;SDS011;3211;53.452;-2.264;2023-03-15T01:09:21;10.17;;;7.17;;
6356;SDS011;3211;53.452;-2.264;2023-03-15T01:11:48;9.13;;;6.57;;
6356;SDS011;3211;53.452;-2.264;2023-03-15T01:14:15;8.10;;;6.47;;
6356;SDS011;3211;53.452;-2.264;2023-03-15T01:16:43;8.90;;;6.37;;
6356;SDS011;3211;53.452;-2.264;2023-03-15T01:19:10;8.20;;;6.67;;
6356;SDS011;3211;53.452;-2.264;2023-03-15T01:21:37;10.73;;;6.80;;
6356;SDS011;3211;53.452;-2.264;2023-03-15T01:24:09;9.27;;;6.10;;
6356;SDS011;3211;53.452;-2.264;2023-03-15T01:26:37;11.20;;;7.57;;
6356;SDS011;3211;53.452;-2.264;2023-03-15T01:29:04;15.43;;;8.70;;
6356;SDS011;3211;53.452;-2.264;2023-03-15T01:31:32;9.97;;;7.47;;
6356;SDS011;3211;53.452;-2.264;2023-03-15T01:33:59;9.23;;;7.13;;
6356;SDS011;3211;53.452;-2.264;2023-03-15T01:36:26;9.77;;;7.50;;
6356;SDS011;3211;53.452;-2.264;2023-03-15T01:38:53;9.60;;;7.70;;
6356;SDS011;3211;53.452;-2.264;2023-03-15T01:41:21;11.97;;;7.83;;
6356;SDS011;3211;53.452;-2.264;2023-03-15T01:43:50;13.20;;;7.90;;
6356;SDS011;3211;53.452;-2.264;2023-03-15T01:46:19;10.20;;;7.60;;
6356;SDS011;3211;53.452;-2.264;2023-03-15T01:48:49;11.40;;;8.40;;
6356;SDS011;3211;53.452;-2.264;2023-03-15T01:51:21;12.63;;;7.97;;
6356;SDS011;3211;53.452;-2.264;2023-03-15T01:53:51;13.40;;;8.23;;
6356;SDS011;3211;53.452;-2.264;2023-03-15T01:56:23;13.53;;;8.90;;
6356;SDS011;3211;53.452;-2.264;2023-03-15T01:58:52;13.00;;;8.13;;
6356;SDS011;3211;53.452;-2.264;2023-03-15T02:01:22;9.93;;;8.07;;
6356;SDS011;3211;53.452;-2.264;2023-03-15T02:03:51;11.47;;;8.40;;
6356;SDS011;3211;53.452;-2.264;2023-03-15T02:06:23;9.70;;;8.00;;
6356;SDS011;3211;53.452;-2.264;2023-03-15T02:08:51;10.90;;;7.47;;
6356;SDS011;3211;53.452;-2.264;2023-03-15T02:11:22;11.63;;;8.57;;
6356;SDS011;3211;53.452;-2.264;2023-03-15T02:13:53;11.20;;;7.60;;
6356;SDS011;3211;53.452;-2.264;2023-03-15T02:16:22;11.20;;;7.30;;
6356;SDS011;3211;53.452;-2.264;2023-03-15T02:18:50;8.10;;;7.03;;
6356;SDS011;3211;53.452;-2.264;2023-03-15T02:21:29;10.73;;;8.27;;
6356;SDS011;3211;53.452;-2.264;2023-03-15T02:24:08;10.43;;;7.37;;
6356;SDS011;3211;53.452;-2.264;2023-03-15T02:26:44;11.13;;;8.70;;
6356;SDS011;3211;53.452;-2.264;2023-03-15T02:29:16;12.73;;;8.13;;
6356;SDS011;3211;53.452;-2.264;2023-03-15T02:31:44;12.97;;;9.30;;
6356;SDS011;3211;53.452;-2.264;2023-03-15T02:34:11;12.10;;;8.77;;
6356;SDS011;3211;53.452;-2.264;2023-03-15T02:36:38;12.67;;;9.60;;
6356;SDS011;3211;53.452;-2.264;2023-03-15T02:39:12;13.07;;;9.30;;
6356;SDS011;3211;53.452;-2.264;2023-03-15T02:41:41;17.10;;;10.67;;
6356;SDS011;3211;53.452;-2.264;2023-03-15T02:44:10;13.70;;;9.80;;
6356;SDS011;3211;53.452;-2.264;2023-03-15T02:46:42;11.40;;;9.50;;
6356;SDS011;3211;53.452;-2.264;2023-03-15T02:49:12;13.33;;;10.10;;
6356;SDS011;3211;53.452;-2.264;2023-03-15T02:51:42;14.50;;;10.50;;
6356;SDS011;3211;53.452;-2.264;2023-03-15T02:54:09;15.43;;;10.90;;
6356;SDS011;3211;53.452;-2.264;2023-03-15T02:56:36;17.20;;;11.03;;
6356;SDS011;3211;53.452;-2.264;2023-03-15T02:59:03;16.40;;;11.57;;
6356;SDS011;3211;53.452;-2.264;2023-03-15T03:01:30;13.10;;;10.20;;
6356;SDS011;3211;53.452;-2.264;2023-03-15T03:03:58;14.77;;;11.03;;
6356;SDS011;3211;53.452;-2.264;2023-03-15T03:06:25;12.27;;;8.90;;
6356;SDS011;3211;53.452;-2.264;2023-03-15T03:08:52;14.00;;;10.00;;
6356;SDS011;3211;53.452;-2.264;2023-03-15T03:11:19;14.53;;;10.40;;
6356;SDS011;3211;53.452;-2.264;2023-03-15T03:13:46;14.43;;;10.47;;
6356;SDS011;3211;53.452;-2.264;2023-03-15T03:16:13;13.00;;;9.67;;
6356;SDS011;3211;53.452;-2.264;2023-03-15T03:18:40;15.30;;;9.80;;
6356;SDS011;3211;53.452;-2.264;2023-03-15T03:21:08;11.90;;;8.93;;
6356;SDS011;3211;53.452;-2.264;2023-03-15T03:23:35;17.17;;;10.27;;
6356;SDS011;3211;53.452;-2.264;2023-03-15T03:26:03;12.70;;;9.90;;
6356;SDS011;3211;53.452;-2.264;2023-03-15T03:28:36;11.40;;;8.80;;
6356;SDS011;3211;53.452;-2.264;2023-03-15T03:31:03;12.47;;;9.33;;
6356;SDS011;3211;53.452;-2.264;2023-03-15T03:33:30;11.27;;;8.90;;
6356;SDS011;3211;53.452;-2.264;2023-03-15T03:36:00;9.07;;;7.70;;
6356;SDS011;3211;53.452;-2.264;2023-03-15T03:38:29;12.23;;;9.87;;
6356;SDS011;3211;53.452;-2.264;2023-03-15T03:40:56;11.17;;;8.33;;
6356;SDS011;3211;53.452;-2.264;2023-03-15T03:43:23;12.03;;;8.80;;
6356;SDS011;3211;53.452;-2.264;2023-03-15T03:45:50;10.80;;;8.27;;
6356;SDS011;3211;53.452;-2.264;2023-03-15T03:48:17;8.47;;;7.43;;
6356;SDS011;3211;53.452;-2.264;2023-03-15T03:50:44;9.80;;;7.37;;
6356;SDS011;3211;53.452;-2.264;2023-03-15T03:53:11;8.60;;;7.20;;
6356;SDS011;3211;53.452;-2.264;2023-03-15T03:55:39;8.00;;;7.03;;
6356;SDS011;3211;53.452;-2.264;2023-03-15T03:58:06;8.90;;;7.53;;
6356;SDS011;3211;53.452;-2.264;2023-03-15T04:00:33;10.23;;;7.93;;
6356;SDS011;3211;53.452;-2.264;2023-03-15T04:03:00;11.23;;;7.80;;
6356;SDS011;3211;53.452;-2.264;2023-03-15T04:05:27;8.50;;;6.50;;
6356;SDS011;3211;53.452;-2.264;2023-03-15T04:07:55;9.97;;;8.13;;
6356;SDS011;3211;53.452;-2.264;2023-03-15T04:10:22;8.37;;;6.97;;
6356;SDS011;3211;53.452;-2.264;2023-03-15T04:12:53;8.20;;;7.20;;
6356;SDS011;3211;53.452;-2.264;2023-03-15T04:15:20;8.33;;;7.00;;
6356;SDS011;3211;53.452;-2.264;2023-03-15T04:17:48;12.43;;;7.20;;
6356;SDS011;3211;53.452;-2.264;2023-03-15T04:20:19;7.80;;;6.47;;
6356;SDS011;3211;53.452;-2.264;2023-03-15T04:22:47;7.90;;;6.57;;
6356;SDS011;3211;53.452;-2.264;2023-03-15T04:25:14;9.03;;;6.90;;
6356;SDS011;3211;53.452;-2.264;2023-03-15T04:27:41;7.57;;;6.37;;
6356;SDS011;3211;53.452;-2.264;2023-03-15T04:30:10;8.60;;;6.30;;
6356;SDS011;3211;53.452;-2.264;2023-03-15T04:32:38;9.30;;;6.90;;
6356;SDS011;3211;53.452;-2.264;2023-03-15T04:35:06;8.43;;;6.50;;
6356;SDS011;3211;53.452;-2.264;2023-03-15T04:37:34;7.80;;;6.67;;
6356;SDS011;3211;53.452;-2.264;2023-03-15T04:40:01;6.53;;;5.83;;
6356;SDS011;3211;53.452;-2.264;2023-03-15T04:42:31;9.00;;;6.67;;
6356;SDS011;3211;53.452;-2.264;2023-03-15T04:44:58;7.40;;;6.10;;
6356;SDS011;3211;53.452;-2.264;2023-03-15T04:47:26;6.93;;;6.00;;
6356;SDS011;3211;53.452;-2.264;2023-03-15T04:49:53;7.87;;;6.57;;
6356;SDS011;3211;53.452;-2.264;2023-03-15T04:52:20;8.63;;;6.90;;
6356;SDS011;3211;53.452;-2.264;2023-03-15T04:54:47;7.33;;;6.27;;
6356;SDS011;3211;53.452;-2.264;2023-03-15T04:57:14;8.10;;;7.27;;
6356;SDS011;3211;53.452;-2.264;2023-03-15T04:59:41;7.23;;;6.37;;
6356;SDS011;3211;53.452;-2.264;2023-03-15T05:02:07;10.03;;;7.13;;
6356;SDS011;3211;53.452;-2.264;2023-03-15T05:04:36;8.60;;;6.83;;
6356;SDS011;3211;53.452;-2.264;2023-03-15T05:07:03;11.20;;;7.90;;
6356;SDS011;3211;53.452;-2.264;2023-03-15T05:09:30;8.73;;;7.43;;
6356;SDS011;3211;53.452;-2.264;2023-03-15T05:12:02;9.53;;;7.63;;
6356;SDS011;3211;53.452;-2.264;2023-03-15T05:14:29;11.33;;;7.43;;
6356;SDS011;3211;53.452;-2.264;2023-03-15T05:16:56;10.50;;;6.40;;
6356;SDS011;3211;53.452;-2.264;2023-03-15T05:19:23;9.90;;;7.90;;
6356;SDS011;3211;53.452;-2.264;2023-03-15T05:21:52;10.03;;;7.57;;
6356;SDS011;3211;53.452;-2.264;2023-03-15T05:24:19;9.70;;;7.80;;
6356;SDS011;3211;53.452;-2.264;2023-03-15T05:26:47;9.57;;;7.50;;
6356;SDS011;3211;53.452;-2.264;2023-03-15T05:29:18;10.30;;;7.73;;
6356;SDS011;3211;53.452;-2.264;2023-03-15T05:31:45;9.60;;;7.43;;
6356;SDS011;3211;53.452;-2.264;2023-03-15T05:34:12;10.80;;;7.67;;
6356;SDS011;3211;53.452;-2.264;2023-03-15T05:36:39;10.27;;;8.37;;
6356;SDS011;3211;53.452;-2.264;2023-03-15T05:39:08;10.20;;;8.17;;
6356;SDS011;3211;53.452;-2.264;2023-03-15T05:41:35;9.53;;;6.83;;
6356;SDS011;3211;53.452;-2.264;2023-03-15T05:44:02;9.93;;;7.77;;
6356;SDS011;3211;53.452;-2.264;2023-03-15T05:46:29;14.00;;;8.70;;
6356;SDS011;3211;53.452;-2.264;2023-03-15T05:48:56;11.10;;;7.90;;
6356;SDS011;3211;53.452;-2.264;2023-03-15T05:51:23;10.57;;;7.70;;
6356;SDS011;3211;53.452;-2.264;2023-03-15T05:53:50;11.97;;;9.10;;
6356;SDS011;3211;53.452;-2.264;2023-03-15T05:56:18;13.77;;;8.23;;
6356;SDS011;3211;53.452;-2.264;2023-03-15T05:58:45;9.20;;;7.43;;
6356;SDS011;3211;53.452;-2.264;2023-03-15T06:01:12;11.70;;;8.60;;
6356;SDS011;3211;53.452;-2.264;2023-03-15T06:03:39;12.00;;;7.83;;
6356;SDS011;3211;53.452;-2.264;2023-03-15T06:06:06;13.13;;;7.93;;
6356;SDS011;3211;53.452;-2.264;2023-03-15T06:08:33;10.70;;;8.00;;
6356;SDS011;3211;53.452;-2.264;2023-03-15T06:11:00;10.07;;;8.00;;
6356;SDS011;3211;53.452;-2.264;2023-03-15T06:13:28;12.17;;;8.83;;
6356;SDS011;3211;53.452;-2.264;2023-03-15T06:15:55;12.97;;;9.17;;
6356;SDS011;3211;53.452;-2.264;2023-03-15T06:18:21;11.93;;;8.10;;
6356;SDS011;3211;53.452;-2.264;2023-03-15T06:20:48;11.07;;;7.93;;
6356;SDS011;3211;53.452;-2.264;2023-03-15T06:23:15;12.57;;;8.10;;
6356;SDS011;3211;53.452;-2.264;2023-03-15T06:25:42;12.60;;;8.47;;
6356;SDS011;3211;53.452;-2.264;2023-03-15T06:28:09;14.40;;;9.20;;
6356;SDS011;3211;53.452;-2.264;2023-03-15T06:30:37;13.43;;;8.67;;
6356;SDS011;3211;53.452;-2.264;2023-03-15T06:33:05;13.10;;;9.13;;
6356;SDS011;3211;53.452;-2.264;2023-03-15T06:35:31;15.10;;;9.50;;
6356;SDS011;3211;53.452;-2.264;2023-03-15T06:37:58;14.20;;;9.23;;
6356;SDS011;3211;53.452;-2.264;2023-03-15T06:40:25;14.00;;;8.97;;
6356;SDS011;3211;53.452;-2.264;2023-03-15T06:42:52;13.40;;;8.93;;
6356;SDS011;3211;53.452;-2.264;2023-03-15T06:45:19;13.10;;;8.70;;
6356;SDS011;3211;53.452;-2.264;2023-03-15T06:47:48;14.70;;;9.53;;
6356;SDS011;3211;53.452;-2.264;2023-03-15T06:50:15;13.53;;;9.40;;
6356;SDS011;3211;53.452;-2.264;2023-03-15T06:52:42;12.57;;;8.97;;
6356;SDS011;3211;53.452;-2.264;2023-03-15T06:55:09;15.13;;;8.87;;
6356;SDS011;3211;53.452;-2.264;2023-03-15T06:57:41;14.30;;;9.50;;
6356;SDS011;3211;53.452;-2.264;2023-03-15T07:00:08;13.50;;;8.87;;
6356;SDS011;3211;53.452;-2.264;2023-03-15T07:02:36;16.30;;;10.27;;
6356;SDS011;3211;53.452;-2.264;2023-03-15T07:05:05;13.07;;;8.90;;
6356;SDS011;3211;53.452;-2.264;2023-03-15T07:07:33;15.07;;;9.40;;
6356;SDS011;3211;53.452;-2.264;2023-03-15T07:10:00;13.50;;;9.07;;
6356;SDS011;3211;53.452;-2.264;2023-03-15T07:12:27;19.43;;;11.23;;
6356;SDS011;3211;53.452;-2.264;2023-03-15T07:14:54;19.20;;;9.67;;
6356;SDS011;3211;53.452;-2.264;2023-03-15T07:17:21;12.83;;;8.83;;
6356;SDS011;3211;53.452;-2.264;2023-03-15T07:19:48;16.53;;;9.80;;
6356;SDS011;3211;53.452;-2.264;2023-03-15T07:22:17;11.60;;;8.67;;
6356;SDS011;3211;53.452;-2.264;2023-03-15T07:24:46;12.40;;;8.90;;
6356;SDS011;3211;53.452;-2.264;2023-03-15T07:27:13;13.37;;;9.40;;
6356;SDS011;3211;53.452;-2.264;2023-03-15T07:29:40;13.43;;;9.13;;
6356;SDS011;3211;53.452;-2.264;2023-03-15T07:32:07;16.40;;;9.70;;
6356;SDS011;3211;53.452;-2.264;2023-03-15T07:34:34;9.40;;;6.73;;
6356;SDS011;3211;53.452;-2.264;2023-03-15T07:37:01;12.53;;;8.37;;
6356;SDS011;3211;53.452;-2.264;2023-03-15T07:39:30;14.80;;;8.33;;
6356;SDS011;3211;53.452;-2.264;2023-03-15T07:41:57;14.73;;;9.37;;
6356;SDS011;3211;53.452;-2.264;2023-03-15T07:44:24;12.90;;;7.60;;
6356;SDS011;3211;53.452;-2.264;2023-03-15T07:46:51;12.27;;;8.10;;
6356;SDS011;3211;53.452;-2.264;2023-03-15T07:49:19;18.43;;;9.50;;
6356;SDS011;3211;53.452;-2.264;2023-03-15T07:51:45;17.90;;;8.70;;
6356;SDS011;3211;53.452;-2.264;2023-03-15T07:54:12;11.27;;;7.70;;
6356;SDS011;3211;53.452;-2.264;2023-03-15T07:56:41;12.37;;;8.43;;
6356;SDS011;3211;53.452;-2.264;2023-03-15T07:59:07;12.60;;;8.07;;
6356;SDS011;3211;53.452;-2.264;2023-03-15T08:01:35;12.67;;;8.03;;
6356;SDS011;3211;53.452;-2.264;2023-03-15T08:04:02;12.27;;;7.40;;
6356;SDS011;3211;53.452;-2.264;2023-03-15T08:06:29;11.57;;;7.30;;
6356;SDS011;3211;53.452;-2.264;2023-03-15T08:09:15;15.27;;;7.87;;
6356;SDS011;3211;53.452;-2.264;2023-03-15T08:12:02;12.20;;;8.07;;
6356;SDS011;3211;53.452;-2.264;2023-03-15T08:14:29;14.03;;;7.87;;
6356;SDS011;3211;53.452;-2.264;2023-03-15T08:16:56;9.83;;;6.67;;
6356;SDS011;3211;53.452;-2.264;2023-03-15T08:19:23;10.20;;;6.60;;
6356;SDS011;3211;53.452;-2.264;2023-03-15T08:21:50;13.03;;;7.70;;
6356;SDS011;3211;53.452;-2.264;2023-03-15T08:24:18;11.83;;;7.53;;
6356;SDS011;3211;53.452;-2.264;2023-03-15T08:26:45;13.77;;;7.70;;
6356;SDS011;3211;53.452;-2.264;2023-03-15T08:29:14;11.07;;;7.53;;
6356;SDS011;3211;53.452;-2.264;2023-03-15T08:31:41;13.17;;;7.87;;
6356;SDS011;3211;53.452;-2.264;2023-03-15T08:34:08;11.63;;;8.50;;
6356;SDS011;3211;53.452;-2.264;2023-03-15T08:36:54;10.57;;;7.37;;
6356;SDS011;3211;53.452;-2.264;2023-03-15T08:39:21;10.60;;;7.70;;
6356;SDS011;3211;53.452;-2.264;2023-03-15T08:42:07;12.20;;;7.10;;
6356;SDS011;3211;53.452;-2.264;2023-03-15T08:44:36;10.73;;;6.40;;
6356;SDS011;3211;53.452;-2.264;2023-03-15T08:47:02;13.73;;;6.80;;
6356;SDS011;3211;53.452;-2.264;2023-03-15T08:49:30;10.73;;;6.20;;
6356;SDS011;3211;53.452;-2.264;2023-03-15T08:51:57;17.40;;;6.03;;
6356;SDS011;3211;53.452;-2.264;2023-03-15T08:54:24;11.73;;;5.80;;
6356;SDS011;3211;53.452;-2.264;2023-03-15T08:56:52;9.00;;;6.20;;
6356;SDS011;3211;53.452;-2.264;2023-03-15T08:59:19;11.30;;;6.43;;
6356;SDS011;3211;53.452;-2.264;2023-03-15T09:01:47;11.37;;;6.87;;
6356;SDS011;3211;53.452;-2.264;2023-03-15T09:04:14;9.67;;;6.73;;
6356;SDS011;3211;53.452;-2.264;2023-03-15T09:06:41;9.70;;;6.70;;
6356;SDS011;3211;53.452;-2.264;2023-03-15T09:09:08;9.77;;;5.10;;
6356;SDS011;3211;53.452;-2.264;2023-03-15T09:11:54;8.90;;;6.40;;
6356;SDS011;3211;53.452;-2.264;2023-03-15T09:14:21;11.23;;;6.43;;
6356;SDS011;3211;53.452;-2.264;2023-03-15T09:17:08;9.60;;;6.10;;
6356;SDS011;3211;53.452;-2.264;2023-03-15T09:19:36;9.20;;;5.67;;
6356;SDS011;3211;53.452;-2.264;2023-03-15T09:22:03;9.53;;;6.17;;
6356;SDS011;3211;53.452;-2.264;2023-03-15T09:24:30;7.57;;;5.23;;
6356;SDS011;3211;53.452;-2.264;2023-03-15T09:26:57;8.33;;;5.47;;
6356;SDS011;3211;53.452;-2.264;2023-03-15T09:29:24;7.93;;;4.87;;
6356;SDS011;3211;53.452;-2.264;2023-03-15T09:31:51;9.97;;;5.50;;
6356;SDS011;3211;53.452;-2.264;2023-03-15T09:34:19;10.33;;;5.50;;
6356;SDS011;3211;53.452;-2.264;2023-03-15T09:36:47;11.77;;;5.00;;
6356;SDS011;3211;53.452;-2.264;2023-03-15T09:39:17;10.83;;;5.37;;
6356;SDS011;3211;53.452;-2.264;2023-03-15T09:41:46;9.20;;;4.93;;
6356;SDS011;3211;53.452;-2.264;2023-03-15T09:44:20;13.10;;;4.40;;
6356;SDS011;3211;53.452;-2.264;2023-03-15T09:47:25;7.40;;;4.83;;
6356;SDS011;3211;53.452;-2.264;2023-03-15T09:50:03;11.00;;;4.80;;
6356;SDS011;3211;53.452;-2.264;2023-03-15T09:52:48;8.00;;;5.20;;
6356;SDS011;3211;53.452;-2.264;2023-03-15T09:55:21;10.33;;;5.53;;
6356;SDS011;3211;53.452;-2.264;2023-03-15T09:58:09;9.13;;;4.27;;
6356;SDS011;3211;53.452;-2.264;2023-03-15T10:00:39;10.00;;;4.60;;
6356;SDS011;3211;53.452;-2.264;2023-03-15T10:03:11;7.80;;;4.00;;
6356;SDS011;3211;53.452;-2.264;2023-03-15T10:05:46;7.23;;;3.93;;
6356;SDS011;3211;53.452;-2.264;2023-03-15T10:08:17;7.70;;;4.30;;
6356;SDS011;3211;53.452;-2.264;2023-03-15T10:10:46;7.20;;;4.20;;
6356;SDS011;3211;53.452;-2.264;2023-03-15T10:13:24;5.00;;;3.40;;
6356;SDS011;3211;53.452;-2.264;2023-03-15T10:16:06;4.30;;;3.90;;
6356;SDS011;3211;53.452;-2.264;2023-03-15T10:18:47;13.63;;;4.53;;
6356;SDS011;3211;53.452;-2.264;2023-03-15T10:21:31;7.23;;;3.83;;
6356;SDS011;3211;53.452;-2.264;2023-03-15T10:24:08;10.30;;;3.67;;
6356;SDS011;3211;53.452;-2.264;2023-03-15T10:26:43;6.13;;;3.90;;
6356;SDS011;3211;53.452;-2.264;2023-03-15T10:29:11;6.07;;;3.50;;
6356;SDS011;3211;53.452;-2.264;2023-03-15T10:31:44;5.23;;;3.10;;
6356;SDS011;3211;53.452;-2.264;2023-03-15T10:34:13;5.97;;;3.40;;
6356;SDS011;3211;53.452;-2.264;2023-03-15T10:36:49;7.40;;;3.97;;
6356;SDS011;3211;53.452;-2.264;2023-03-15T10:39:37;7.67;;;3.93;;
6356;SDS011;3211;53.452;-2.264;2023-03-15T10:42:22;8.10;;;3.73;;
6356;SDS011;3211;53.452;-2.264;2023-03-15T10:44:53;8.80;;;2.90;;
6356;SDS011;3211;53.452;-2.264;2023-03-15T10:47:20;3.50;;;2.93;;
6356;SDS011;3211;53.452;-2.264;2023-03-15T10:50:07;10.27;;;4.00;;
6356;SDS011;3211;53.452;-2.264;2023-03-15T10:52:37;5.00;;;2.97;;
6356;SDS011;3211;53.452;-2.264;2023-03-15T10:55:06;10.90;;;3.10;;
6356;SDS011;3211;53.452;-2.264;2023-03-15T10:57:37;7.63;;;3.37;;
6356;SDS011;3211;53.452;-2.264;2023-03-15T11:00:12;6.97;;;3.40;;
6356;SDS011;3211;53.452;-2.264;2023-03-15T11:02:59;5.03;;;3.00;;
6356;SDS011;3211;53.452;-2.264;2023-03-15T11:05:29;7.57;;;3.40;;
6356;SDS011;3211;53.452;-2.264;2023-03-15T11:08:11;5.10;;;3.50;;
6356;SDS011;3211;53.452;-2.264;2023-03-15T11:10:39;10.73;;;3.40;;
6356;SDS011;3211;53.452;-2.264;2023-03-15T11:13:09;6.73;;;3.60;;
6356;SDS011;3211;53.452;-2.264;2023-03-15T11:15:38;4.53;;;4.00;;
6356;SDS011;3211;53.452;-2.264;2023-03-15T11:18:15;6.33;;;3.03;;
6356;SDS011;3211;53.452;-2.264;2023-03-15T11:20:44;4.70;;;2.87;;
6356;SDS011;3211;53.452;-2.264;2023-03-15T11:23:14;5.50;;;3.03;;
6356;SDS011;3211;53.452;-2.264;2023-03-15T11:25:43;5.13;;;2.43;;
6356;SDS011;3211;53.452;-2.264;2023-03-15T11:28:15;5.20;;;2.80;;
6356;SDS011;3211;53.452;-2.264;2023-03-15T11:30:44;5.67;;;2.80;;
6356;SDS011;3211;53.452;-2.264;2023-03-15T11:33:17;5.10;;;2.50;;
6356;SDS011;3211;53.452;-2.264;2023-03-15T11:35:57;4.77;;;2.57;;
6356;SDS011;3211;53.452;-2.264;2023-03-15T11:38:29;6.40;;;2.13;;
6356;SDS011;3211;53.452;-2.264;2023-03-15T11:40:59;4.93;;;2.40;;
6356;SDS011;3211;53.452;-2.264;2023-03-15T11:43:33;5.13;;;2.57;;
6356;SDS011;3211;53.452;-2.264;2023-03-15T11:46:07;5.63;;;2.77;;
6356;SDS011;3211;53.452;-2.264;2023-03-15T11:49:00;3.47;;;2.30;;
6356;SDS011;3211;53.452;-2.264;2023-03-15T11:51:31;4.17;;;2.43;;
6356;SDS011;3211;53.452;-2.264;2023-03-15T11:54:06;6.90;;;2.20;;
6356;SDS011;3211;53.452;-2.264;2023-03-15T11:56:44;5.93;;;2.47;;
6356;SDS011;3211;53.452;-2.264;2023-03-15T11:59:14;8.73;;;2.67;;
6356;SDS011;3211;53.452;-2.264;2023-03-15T12:01:43;3.00;;;2.13;;
6356;SDS011;3211;53.452;-2.264;2023-03-15T12:07:09;4.50;;;2.20;;
6356;SDS011;3211;53.452;-2.264;2023-03-15T12:09:55;4.93;;;2.27;;
6356;SDS011;3211;53.452;-2.264;2023-03-15T12:12:35;5.80;;;2.40;;
6356;SDS011;3211;53.452;-2.264;2023-03-15T12:15:04;6.90;;;2.87;;
6356;SDS011;3211;53.452;-2.264;2023-03-15T12:17:42;3.30;;;1.90;;
6356;SDS011;3211;53.452;-2.264;2023-03-15T12:20:15;5.93;;;2.20;;
6356;SDS011;3211;53.452;-2.264;2023-03-15T12:22:47;2.97;;;1.73;;
6356;SDS011;3211;53.452;-2.264;2023-03-15T12:25:19;3.97;;;2.23;;
6356;SDS011;3211;53.452;-2.264;2023-03-15T12:27:54;4.70;;;2.13;;
6356;SDS011;3211;53.452;-2.264;2023-03-15T12:30:41;5.50;;;2.20;;
6356;SDS011;3211;53.452;-2.264;2023-03-15T12:33:11;4.87;;;2.50;;
6356;SDS011;3211;53.452;-2.264;2023-03-15T12:35:59;3.33;;;2.10;;
6356;SDS011;3211;53.452;-2.264;2023-03-15T12:38:31;3.60;;;2.07;;
6356;SDS011;3211;53.452;-2.264;2023-03-15T12:41:06;7.43;;;2.30;;
6356;SDS011;3211;53.452;-2.264;2023-03-15T12:43:35;6.33;;;2.43;;
6356;SDS011;3211;53.452;-2.264;2023-03-15T12:46:03;6.87;;;2.53;;
6356;SDS011;3211;53.452;-2.264;2023-03-15T12:48:34;7.10;;;1.77;;
6356;SDS011;3211;53.452;-2.264;2023-03-15T12:51:02;2.30;;;2.10;;
6356;SDS011;3211;53.452;-2.264;2023-03-15T12:53:34;7.47;;;2.20;;
6356;SDS011;3211;53.452;-2.264;2023-03-15T12:56:20;7.97;;;2.03;;
6356;SDS011;3211;53.452;-2.264;2023-03-15T12:58:57;3.50;;;2.23;;
6356;SDS011;3211;53.452;-2.264;2023-03-15T13:01:29;2.10;;;1.80;;
6356;SDS011;3211;53.452;-2.264;2023-03-15T13:03:57;4.40;;;1.83;;
6356;SDS011;3211;53.452;-2.264;2023-03-15T13:06:28;7.00;;;2.20;;
6356;SDS011;3211;53.452;-2.264;2023-03-15T13:09:10;2.77;;;1.70;;
6356;SDS011;3211;53.452;-2.264;2023-03-15T13:12:08;4.37;;;1.90;;
6356;SDS011;3211;53.452;-2.264;2023-03-15T13:14:41;8.77;;;1.50;;
6356;SDS011;3211;53.452;-2.264;2023-03-15T13:17:34;4.37;;;2.10;;
6356;SDS011;3211;53.452;-2.264;2023-03-15T13:20:12;2.80;;;1.77;;
6356;SDS011;3211;53.452;-2.264;2023-03-15T13:23:12;8.43;;;2.40;;
6356;SDS011;3211;53.452;-2.264;2023-03-15T13:25:44;5.80;;;1.90;;
6356;SDS011;3211;53.452;-2.264;2023-03-15T13:28:40;6.27;;;2.67;;
6356;SDS011;3211;53.452;-2.264;2023-03-15T13:31:16;3.80;;;1.93;;
6356;SDS011;3211;53.452;-2.264;2023-03-15T13:34:10;3.80;;;2.40;;
6356;SDS011;3211;53.452;-2.264;2023-03-15T13:36:40;3.70;;;2.40;;
6356;SDS011;3211;53.452;-2.264;2023-03-15T13:39:10;4.47;;;2.00;;
6356;SDS011;3211;53.452;-2.264;2023-03-15T13:41:43;4.00;;;2.00;;
6356;SDS011;3211;53.452;-2.264;2023-03-15T13:44:15;3.40;;;2.10;;
6356;SDS011;3211;53.452;-2.264;2023-03-15T13:46:45;2.37;;;2.00;;
6356;SDS011;3211;53.452;-2.264;2023-03-15T13:49:13;3.90;;;2.20;;
6356;SDS011;3211;53.452;-2.264;2023-03-15T13:51:41;3.30;;;2.10;;
6356;SDS011;3211;53.452;-2.264;2023-03-15T13:54:11;5.40;;;2.10;;
6356;SDS011;3211;53.452;-2.264;2023-03-15T13:56:44;3.43;;;2.10;;
6356;SDS011;3211;53.452;-2.264;2023-03-15T13:59:22;3.00;;;1.80;;
6356;SDS011;3211;53.452;-2.264;2023-03-15T14:01:56;5.50;;;2.13;;
6356;SDS011;3211;53.452;-2.264;2023-03-15T14:04:24;4.30;;;1.97;;
6356;SDS011;3211;53.452;-2.264;2023-03-15T14:07:08;8.83;;;2.40;;
6356;SDS011;3211;53.452;-2.264;2023-03-15T14:10:18;5.23;;;2.17;;
6356;SDS011;3211;53.452;-2.264;2023-03-15T14:12:57;3.50;;;1.87;;
6356;SDS011;3211;53.452;-2.264;2023-03-15T14:16:01;4.77;;;2.17;;
6356;SDS011;3211;53.452;-2.264;2023-03-15T14:18:31;10.63;;;2.17;;
6356;SDS011;3211;53.452;-2.264;2023-03-15T14:20:59;3.10;;;2.10;;
6356;SDS011;3211;53.452;-2.264;2023-03-15T14:23:29;4.40;;;2.27;;
6356;SDS011;3211;53.452;-2.264;2023-03-15T14:26:01;2.20;;;1.97;;
6356;SDS011;3211;53.452;-2.264;2023-03-15T14:28:32;6.03;;;2.77;;
6356;SDS011;3211;53.452;-2.264;2023-03-15T14:31:01;3.60;;;1.90;;
6356;SDS011;3211;53.452;-2.264;2023-03-15T14:33:31;4.10;;;2.33;;
6356;SDS011;3211;53.452;-2.264;2023-03-15T14:36:02;5.13;;;2.93;;
6356;SDS011;3211;53.452;-2.264;2023-03-15T14:38:33;7.87;;;2.40;;
6356;SDS011;3211;53.452;-2.264;2023-03-15T14:43:57;1.70;;;1.60;;
6356;SDS011;3211;53.452;-2.264;2023-03-15T14:46:26;2.70;;;1.70;;
6356;SDS011;3211;53.452;-2.264;2023-03-15T14:48:53;4.30;;;1.90;;
6356;SDS011;3211;53.452;-2.264;2023-03-15T14:51:39;4.60;;;2.10;;
6356;SDS011;3211;53.452;-2.264;2023-03-15T14:54:08;4.80;;;2.20;;
6356;SDS011;3211;53.452;-2.264;2023-03-15T14:56:56;3.20;;;2.20;;
6356;SDS011;3211;53.452;-2.264;2023-03-15T14:59:23;3.40;;;2.10;;
6356;SDS011;3211;53.452;-2.264;2023-03-15T15:01:51;3.30;;;2.17;;
6356;SDS011;3211;53.452;-2.264;2023-03-15T15:04:21;4.53;;;2.60;;
6356;SDS011;3211;53.452;-2.264;2023-03-15T15:06:49;3.80;;;2.70;;
6356;SDS011;3211;53.452;-2.264;2023-03-15T15:09:20;3.60;;;2.60;;
6356;SDS011;3211;53.452;-2.264;2023-03-15T15:11:50;4.10;;;2.70;;
6356;SDS011;3211;53.452;-2.264;2023-03-15T15:14:17;4.13;;;2.80;;
6356;SDS011;3211;53.452;-2.264;2023-03-15T15:16:46;8.43;;;2.70;;
6356;SDS011;3211;53.452;-2.264;2023-03-15T15:19:18;4.57;;;2.40;;
6356;SDS011;3211;53.452;-2.264;2023-03-15T15:21:45;4.63;;;2.70;;